createdAt,value
2018-11-13T00:00:15.559Z,7.80
2018-11-13T00:02:43.579Z,7.00
2018-11-13T00:05:11.437Z,8.87
2018-11-13T00:07:39.251Z,7.47
2018-11-13T00:10:09.385Z,9.10
2018-11-13T00:12:36.891Z,7.67
2018-11-13T00:15:05.515Z,7.30
2018-11-13T00:17:33.063Z,5.70
2018-11-13T00:20:00.650Z,5.63
2018-11-13T00:22:30.071Z,5.80
2018-11-13T00:24:58.672Z,6.50
2018-11-13T00:27:26.852Z,5.63
2018-11-13T00:29:54.457Z,7.77
2018-11-13T00:32:21.968Z,8.27
2018-11-13T00:34:49.541Z,9.37
2018-11-13T00:37:17.622Z,6.40
2018-11-13T00:39:45.860Z,6.40
2018-11-13T00:42:13.317Z,5.60
2018-11-13T00:44:41.273Z,6.50
2018-11-13T00:47:09.437Z,6.30
2018-11-13T00:49:38.405Z,6.10
2018-11-13T00:52:08.052Z,7.80
2018-11-13T00:54:36.170Z,5.90
2018-11-13T00:57:04.356Z,5.87
2018-11-13T00:59:32.084Z,7.63
2018-11-13T01:02:00.077Z,7.37
2018-11-13T01:04:27.639Z,6.60
2018-11-13T01:06:55.127Z,6.63
2018-11-13T01:09:23.406Z,5.50
2018-11-13T01:11:51.617Z,4.53
2018-11-13T01:14:19.119Z,4.70
2018-11-13T01:16:46.728Z,4.30
2018-11-13T01:19:14.252Z,3.90
2018-11-13T01:21:42.481Z,4.97
2018-11-13T01:24:09.988Z,4.20
2018-11-13T01:26:38.710Z,4.40
2018-11-13T01:29:06.364Z,4.23
2018-11-13T01:31:33.919Z,4.80
2018-11-13T01:34:01.516Z,5.60
2018-11-13T01:36:30.167Z,4.13
2018-11-13T01:38:58.562Z,4.47
2018-11-13T01:41:26.676Z,3.40
2018-11-13T01:43:55.476Z,3.40
2018-11-13T01:46:23.041Z,2.27
2018-11-13T01:48:51.160Z,4.97
2018-11-13T01:51:19.980Z,5.87
2018-11-13T01:53:48.161Z,3.70
2018-11-13T01:56:16.432Z,3.80
2018-11-13T01:58:43.934Z,3.50
2018-11-13T02:01:12.104Z,4.03
2018-11-13T02:03:39.639Z,3.87
2018-11-13T02:06:07.708Z,4.20
2018-11-13T02:08:35.372Z,2.93
2018-11-13T02:11:03.584Z,3.00
2018-11-13T02:13:31.968Z,2.50
2018-11-13T02:15:59.468Z,2.47
2018-11-13T02:18:26.987Z,3.00
2018-11-13T02:20:55.098Z,2.50
2018-11-13T02:23:22.626Z,3.00
2018-11-13T02:25:50.815Z,2.77
2018-11-13T02:28:18.309Z,2.10
2018-11-13T02:30:46.286Z,2.30
2018-11-13T02:33:13.807Z,2.60
2018-11-13T02:35:42.899Z,2.10
2018-11-13T02:38:10.332Z,2.30
2018-11-13T02:40:39.247Z,2.50
2018-11-13T02:43:06.756Z,3.33
2018-11-13T02:45:34.308Z,2.67
2018-11-13T02:48:02.263Z,2.23
2018-11-13T02:50:30.444Z,2.27
2018-11-13T02:52:58.366Z,2.40
2018-11-13T02:55:26.817Z,2.00
2018-11-13T02:57:54.305Z,2.13
2018-11-13T03:00:22.300Z,2.77
2018-11-13T03:02:50.751Z,2.50
2018-11-13T03:05:19.461Z,2.07
2018-11-13T03:07:46.975Z,2.57
2018-11-13T03:10:16.205Z,2.40
2018-11-13T03:12:43.710Z,2.40
2018-11-13T03:15:13.687Z,2.50
2018-11-13T03:17:41.318Z,2.43
2018-11-13T03:20:12.951Z,2.47
2018-11-13T03:22:41.837Z,2.97
2018-11-13T03:25:13.484Z,3.90
2018-11-13T03:27:41.351Z,2.70
2018-11-13T03:30:12.716Z,2.60
2018-11-13T03:32:41.181Z,2.37
2018-11-13T03:35:08.716Z,2.53
2018-11-13T03:37:37.196Z,2.10
2018-11-13T03:40:06.284Z,2.90
2018-11-13T03:42:35.088Z,2.90
2018-11-13T03:45:03.271Z,2.47
2018-11-13T03:47:30.791Z,3.03
2018-11-13T03:49:59.031Z,2.80
2018-11-13T03:52:26.655Z,2.87
2018-11-13T03:54:54.128Z,3.50
2018-11-13T03:57:22.165Z,3.40
2018-11-13T03:59:49.830Z,2.20
2018-11-13T04:02:18.371Z,2.60
2018-11-13T04:04:45.938Z,2.33
2018-11-13T04:07:13.471Z,2.20
2018-11-13T04:09:41.424Z,2.17
2018-11-13T04:12:08.948Z,2.50
2018-11-13T04:14:36.484Z,1.80
2018-11-13T04:17:04.873Z,2.53
2018-11-13T04:19:32.391Z,2.10
2018-11-13T04:22:04.216Z,2.10
2018-11-13T04:24:33.527Z,2.03
2018-11-13T04:27:01.656Z,1.90
2018-11-13T04:29:29.311Z,2.20
2018-11-13T04:31:57.750Z,2.07
2018-11-13T04:34:25.259Z,1.80
2018-11-13T04:36:53.190Z,2.03
2018-11-13T04:39:21.162Z,1.87
2018-11-13T04:41:48.653Z,2.20
2018-11-13T04:44:17.211Z,2.20
2018-11-13T04:46:45.592Z,2.07
2018-11-13T04:49:13.632Z,2.17
2018-11-13T04:51:42.618Z,2.20
2018-11-13T04:54:10.101Z,2.53
2018-11-13T04:56:38.037Z,2.20
2018-11-13T04:59:05.696Z,2.10
2018-11-13T05:01:33.668Z,2.03
2018-11-13T05:04:01.184Z,1.97
2018-11-13T05:06:28.953Z,2.57
2018-11-13T05:08:56.477Z,2.67
2018-11-13T05:11:24.480Z,2.33
2018-11-13T05:13:52.000Z,2.23
2018-11-13T05:16:20.541Z,3.23
2018-11-13T05:18:48.064Z,2.30
2018-11-13T05:21:16.301Z,2.60
2018-11-13T05:23:43.812Z,2.53
2018-11-13T05:26:12.081Z,2.57
2018-11-13T05:28:40.178Z,2.60
2018-11-13T05:31:07.733Z,2.70
2018-11-13T05:33:35.341Z,2.90
2018-11-13T05:36:03.629Z,3.10
2018-11-13T05:38:31.272Z,2.90
2018-11-13T05:40:59.420Z,2.37
2018-11-13T05:43:27.806Z,2.50
2018-11-13T05:45:56.232Z,2.70
2018-11-13T05:48:24.420Z,2.43
2018-11-13T05:50:52.461Z,2.40
2018-11-13T05:53:19.970Z,2.00
2018-11-13T05:55:48.242Z,2.00
2018-11-13T05:58:16.024Z,2.80
2018-11-13T06:00:43.655Z,2.33
2018-11-13T06:03:11.656Z,2.43
2018-11-13T06:05:39.168Z,2.33
2018-11-13T06:08:06.686Z,2.63
2018-11-13T06:10:35.364Z,2.27
2018-11-13T06:13:04.053Z,2.67
2018-11-13T06:15:31.581Z,2.10
2018-11-13T06:17:59.142Z,2.00
2018-11-13T06:20:27.799Z,2.00
2018-11-13T06:22:55.463Z,1.83
2018-11-13T06:25:24.029Z,2.13
2018-11-13T06:27:52.008Z,1.80
2018-11-13T06:30:21.248Z,2.10
2018-11-13T06:32:49.530Z,2.23
2018-11-13T06:35:17.176Z,2.00
2018-11-13T06:37:45.492Z,2.40
2018-11-13T06:40:13.424Z,2.33
2018-11-13T06:42:41.781Z,2.90
2018-11-13T06:45:13.717Z,2.83
2018-11-13T06:47:42.207Z,2.60
2018-11-13T06:50:11.276Z,2.30
2018-11-13T06:52:38.796Z,2.33
2018-11-13T06:55:12.927Z,2.60
2018-11-13T06:57:41.512Z,2.50
2018-11-13T07:00:09.939Z,2.30
2018-11-13T07:02:38.884Z,2.30
2018-11-13T07:05:08.625Z,2.60
2018-11-13T07:07:36.070Z,2.20
2018-11-13T07:10:04.652Z,2.50
2018-11-13T07:12:32.148Z,2.50
2018-11-13T07:14:59.680Z,2.33
2018-11-13T07:17:27.204Z,2.50
2018-11-13T07:19:54.715Z,2.23
2018-11-13T07:22:23.275Z,2.30
2018-11-13T07:24:51.316Z,2.10
2018-11-13T07:27:18.905Z,2.60
2018-11-13T07:29:46.383Z,2.27
2018-11-13T07:32:13.931Z,2.37
2018-11-13T07:34:41.435Z,2.10
2018-11-13T07:37:09.706Z,2.07
2018-11-13T07:39:37.875Z,1.90
2018-11-13T07:42:06.079Z,2.17
2018-11-13T07:44:34.443Z,2.10
2018-11-13T07:47:02.028Z,2.10
2018-11-13T07:49:30.303Z,4.60
2018-11-13T07:51:57.840Z,4.13
2018-11-13T07:54:25.366Z,3.30
2018-11-13T07:56:56.783Z,5.00
2018-11-13T07:59:24.395Z,4.53
2018-11-13T08:01:52.439Z,6.13
2018-11-13T08:04:19.969Z,6.93
2018-11-13T08:06:48.935Z,6.60
2018-11-13T08:09:16.301Z,7.87
2018-11-13T08:11:44.621Z,7.57
2018-11-13T08:14:12.164Z,7.40
2018-11-13T08:16:40.239Z,6.60
2018-11-13T08:19:07.788Z,6.07
2018-11-13T08:21:35.863Z,6.90
2018-11-13T08:24:03.407Z,6.90
2018-11-13T08:26:31.892Z,6.47
2018-11-13T08:28:59.521Z,6.60
2018-11-13T08:31:27.510Z,7.30
2018-11-13T08:33:55.572Z,6.57
2018-11-13T08:36:23.880Z,6.60
2018-11-13T08:38:51.424Z,6.70
2018-11-13T08:41:19.691Z,6.90
2018-11-13T08:43:47.747Z,6.30
2018-11-13T08:46:16.567Z,5.90
2018-11-13T08:48:45.323Z,6.87
2018-11-13T08:51:14.042Z,6.23
2018-11-13T08:53:41.588Z,7.17
2018-11-13T08:56:09.661Z,6.20
2018-11-13T08:58:37.870Z,6.27
2018-11-13T09:01:06.453Z,6.37
2018-11-13T09:03:34.556Z,5.83
2018-11-13T09:06:02.120Z,5.80
2018-11-13T09:08:29.644Z,5.60
2018-11-13T09:10:58.948Z,5.53
2018-11-13T09:13:26.574Z,4.97
2018-11-13T09:15:54.068Z,4.87
2018-11-13T09:18:23.285Z,5.20
2018-11-13T09:20:51.319Z,5.93
2018-11-13T09:23:18.831Z,4.70
2018-11-13T09:25:46.997Z,5.60
2018-11-13T09:28:14.545Z,4.83
2018-11-13T09:30:42.945Z,5.20
2018-11-13T09:33:10.119Z,4.90
2018-11-13T09:35:38.139Z,4.77
2018-11-13T09:38:06.570Z,4.90
2018-11-13T09:40:34.843Z,5.40
2018-11-13T09:43:02.334Z,5.57
2018-11-13T09:45:30.476Z,5.47
2018-11-13T09:47:58.586Z,4.90
2018-11-13T09:50:26.717Z,4.70
2018-11-13T09:52:54.972Z,5.23
2018-11-13T09:55:23.419Z,5.40
2018-11-13T09:57:51.330Z,4.10
2018-11-13T10:00:22.353Z,5.23
2018-11-13T10:02:55.821Z,5.90
2018-11-13T10:05:23.056Z,5.87
2018-11-13T10:07:50.982Z,5.83
2018-11-13T10:10:19.751Z,5.87
2018-11-13T10:12:47.545Z,5.03
2018-11-13T10:15:17.584Z,5.30
2018-11-13T10:17:46.252Z,5.17
2018-11-13T10:20:15.319Z,5.23
2018-11-13T10:22:45.047Z,5.37
2018-11-13T10:25:13.246Z,5.43
2018-11-13T10:27:42.044Z,4.97
2018-11-13T10:30:12.509Z,4.37
2018-11-13T10:32:42.015Z,6.03
2018-11-13T10:35:11.575Z,5.80
2018-11-13T10:37:40.500Z,6.70
2018-11-13T10:40:10.775Z,6.87
2018-11-13T10:42:39.579Z,6.83
2018-11-13T10:45:10.179Z,5.40
2018-11-13T10:47:37.802Z,4.90
2018-11-13T10:50:10.698Z,4.60
2018-11-13T10:52:38.816Z,4.93
2018-11-13T10:55:08.063Z,4.90
2018-11-13T10:57:35.735Z,4.90
2018-11-13T11:00:04.824Z,4.87
2018-11-13T11:02:39.311Z,5.00
2018-11-13T11:05:08.586Z,4.90
2018-11-13T11:07:36.108Z,5.17
2018-11-13T11:10:06.264Z,5.50
2018-11-13T11:12:33.767Z,4.10
2018-11-13T11:15:01.776Z,3.70
2018-11-13T11:17:29.296Z,3.37
2018-11-13T11:19:56.873Z,3.30
2018-11-13T11:22:25.979Z,3.73
2018-11-13T11:24:53.924Z,3.53
2018-11-13T11:27:22.228Z,3.23
2018-11-13T11:29:50.719Z,3.00
2018-11-13T11:32:18.401Z,3.03
2018-11-13T11:34:46.879Z,4.07
2018-11-13T11:37:14.428Z,3.70
2018-11-13T11:39:41.945Z,3.67
2018-11-13T11:42:10.913Z,3.23
2018-11-13T11:44:39.172Z,3.23
2018-11-13T11:47:06.740Z,3.20
2018-11-13T11:49:34.735Z,2.90
2018-11-13T11:52:02.316Z,3.07
2018-11-13T11:54:30.493Z,2.80
2018-11-13T11:56:58.849Z,2.80
2018-11-13T11:59:26.352Z,3.20
2018-11-13T12:01:55.403Z,2.90
2018-11-13T12:04:23.587Z,2.80
2018-11-13T12:06:51.092Z,2.90
2018-11-13T12:09:18.621Z,2.90
2018-11-13T12:11:46.596Z,3.27
2018-11-13T12:14:14.136Z,3.63
2018-11-13T12:16:41.788Z,3.00
2018-11-13T12:19:09.819Z,3.27
2018-11-13T12:21:39.815Z,3.33
2018-11-13T12:24:08.100Z,2.90
2018-11-13T12:26:36.583Z,4.60
2018-11-13T12:29:05.585Z,6.03
2018-11-13T12:31:34.059Z,32.60
2018-11-13T12:34:02.157Z,65.37
2018-11-13T12:36:30.151Z,11.00
2018-11-13T12:38:57.667Z,4.30
2018-11-13T12:41:25.750Z,5.10
2018-11-13T12:43:53.901Z,4.30
2018-11-13T12:46:22.053Z,4.63
2018-11-13T12:48:50.539Z,4.83
2018-11-13T12:51:24.053Z,4.13
2018-11-13T12:53:51.585Z,4.43
2018-11-13T12:56:20.054Z,4.37
2018-11-13T12:58:47.659Z,5.40
2018-11-13T13:01:15.993Z,3.83
2018-11-13T13:03:43.655Z,4.90
2018-11-13T13:06:11.165Z,4.80
2018-11-13T13:08:40.209Z,6.40
2018-11-13T13:11:08.396Z,5.80
2018-11-13T13:13:35.935Z,6.90
2018-11-13T13:16:03.634Z,7.33
2018-11-13T13:18:31.138Z,7.53
2018-11-13T13:20:59.892Z,6.83
2018-11-13T13:23:28.654Z,8.43
2018-11-13T13:25:56.774Z,7.90
2018-11-13T13:28:24.254Z,8.57
2018-11-13T13:30:51.806Z,10.03
2018-11-13T13:33:20.068Z,8.70
2018-11-13T13:35:51.059Z,9.27
2018-11-13T13:38:18.696Z,9.33
2018-11-13T13:40:48.140Z,8.97
2018-11-13T13:43:16.675Z,9.80
2018-11-13T13:45:46.533Z,9.57
2018-11-13T13:48:14.629Z,9.00
2018-11-13T13:50:42.308Z,9.90
2018-11-13T13:53:11.070Z,9.87
2018-11-13T13:55:39.708Z,10.83
2018-11-13T13:58:07.309Z,10.47
2018-11-13T14:00:36.078Z,10.27
2018-11-13T14:03:05.925Z,9.87
2018-11-13T14:05:33.475Z,9.27
2018-11-13T14:08:02.335Z,9.40
2018-11-13T14:10:30.606Z,10.00
2018-11-13T14:12:58.430Z,9.30
2018-11-13T14:15:26.064Z,9.80
2018-11-13T14:17:53.715Z,9.90
2018-11-13T14:20:22.450Z,10.77
2018-11-13T14:22:50.413Z,9.30
2018-11-13T14:25:18.659Z,9.40
2018-11-13T14:27:46.891Z,10.30
2018-11-13T14:30:20.227Z,10.33
2018-11-13T14:32:48.459Z,9.80
2018-11-13T14:35:16.492Z,10.57
2018-11-13T14:37:44.365Z,9.23
2018-11-13T14:40:19.142Z,10.87
2018-11-13T14:42:47.211Z,9.77
2018-11-13T14:45:15.395Z,9.57
2018-11-13T14:47:44.442Z,11.30
2018-11-13T14:50:14.499Z,10.70
2018-11-13T14:52:42.629Z,10.70
2018-11-13T14:55:14.586Z,10.43
2018-11-13T14:57:43.054Z,10.13
2018-11-13T15:00:13.574Z,11.10
2018-11-13T15:02:42.450Z,9.80
2018-11-13T15:05:12.655Z,10.20
2018-11-13T15:07:41.669Z,8.60
2018-11-13T15:10:13.340Z,9.30
2018-11-13T15:12:41.222Z,8.90
2018-11-13T15:15:10.297Z,8.10
2018-11-13T15:17:39.059Z,8.93
2018-11-13T15:20:11.141Z,8.93
2018-11-13T15:22:39.552Z,7.60
2018-11-13T15:25:10.158Z,7.80
2018-11-13T15:27:37.703Z,7.77
2018-11-13T15:30:09.259Z,6.63
2018-11-13T15:32:36.813Z,6.77
2018-11-13T15:35:06.242Z,7.50
2018-11-13T15:37:34.335Z,7.00
2018-11-13T15:40:02.555Z,5.13
2018-11-13T15:42:30.459Z,5.63
2018-11-13T15:44:58.582Z,6.83
2018-11-13T15:47:26.046Z,5.80
2018-11-13T15:49:55.451Z,5.70
2018-11-13T15:52:23.711Z,5.97
2018-11-13T15:54:51.771Z,5.03
2018-11-13T15:57:20.268Z,5.60
2018-11-13T15:59:48.603Z,4.73
2018-11-13T16:02:16.716Z,4.27
2018-11-13T16:04:44.801Z,3.97
2018-11-13T16:07:12.513Z,3.60
2018-11-13T16:09:40.848Z,3.50
2018-11-13T16:12:09.014Z,4.10
2018-11-13T16:14:37.091Z,3.50
2018-11-13T16:17:05.079Z,4.40
2018-11-13T16:19:33.047Z,4.73
2018-11-13T16:22:01.498Z,4.50
2018-11-13T16:24:29.829Z,4.60
2018-11-13T16:26:57.814Z,5.07
2018-11-13T16:29:25.340Z,6.60
2018-11-13T16:31:52.862Z,6.93
2018-11-13T16:34:20.999Z,8.30
2018-11-13T16:36:48.651Z,9.17
2018-11-13T16:39:16.139Z,11.83
2018-11-13T16:41:44.107Z,25.00
2018-11-13T16:44:11.980Z,19.97
2018-11-13T16:46:39.836Z,14.67
2018-11-13T16:49:08.218Z,12.47
2018-11-13T16:51:36.203Z,9.63
2018-11-13T16:54:06.360Z,10.10
2018-11-13T16:56:55.251Z,10.87
2018-11-13T16:59:23.543Z,9.20
2018-11-13T17:01:51.537Z,10.00
2018-11-13T17:04:20.199Z,11.73
2018-11-13T17:06:48.477Z,10.77
2018-11-13T17:09:16.439Z,10.57
2018-11-13T17:11:44.990Z,10.10
2018-11-13T17:14:12.483Z,7.73
2018-11-13T17:16:40.658Z,7.30
2018-11-13T17:19:08.148Z,6.70
2018-11-13T17:21:36.367Z,8.93
2018-11-13T17:24:04.367Z,10.60
2018-11-13T17:26:32.628Z,10.80
2018-11-13T17:29:00.101Z,10.63
2018-11-13T17:31:27.664Z,9.50
2018-11-13T17:33:56.109Z,7.43
2018-11-13T17:36:23.617Z,10.30
2018-11-13T17:38:52.148Z,9.73
2018-11-13T17:41:20.440Z,7.20
2018-11-13T17:43:48.851Z,7.10
2018-11-13T17:46:18.180Z,6.60
2018-11-13T17:48:46.524Z,6.67
2018-11-13T17:51:14.036Z,5.73
2018-11-13T17:53:41.604Z,7.63
2018-11-13T17:56:09.803Z,6.13
2018-11-13T17:58:37.766Z,5.27
2018-11-13T18:01:05.966Z,4.30
2018-11-13T18:03:34.507Z,6.30
2018-11-13T18:06:02.084Z,5.47
2018-11-13T18:08:30.233Z,4.80
2018-11-13T18:10:58.196Z,5.13
2018-11-13T18:13:26.459Z,5.13
2018-11-13T18:15:54.420Z,6.83
2018-11-13T18:18:22.615Z,7.80
2018-11-13T18:20:52.055Z,6.80
2018-11-13T18:23:20.160Z,8.23
2018-11-13T18:25:48.284Z,9.00
2018-11-13T18:28:15.920Z,9.47
2018-11-13T18:30:44.292Z,9.90
2018-11-13T18:33:12.521Z,11.70
2018-11-13T18:35:40.441Z,9.47
2018-11-13T18:38:10.092Z,9.67
2018-11-13T18:40:38.153Z,9.63
2018-11-13T18:43:06.935Z,7.40
2018-11-13T18:45:36.783Z,9.07
2018-11-13T18:48:05.289Z,7.77
2018-11-13T18:50:34.294Z,7.60
2018-11-13T18:53:01.892Z,8.77
2018-11-13T18:55:31.559Z,7.60
2018-11-13T18:58:00.439Z,8.30
2018-11-13T19:00:30.348Z,8.27
2018-11-13T19:02:59.236Z,13.00
2018-11-13T19:05:27.672Z,12.03
2018-11-13T19:07:55.774Z,11.73
2018-11-13T19:10:33.090Z,12.57
2018-11-13T19:13:01.718Z,49.17
2018-11-13T19:15:30.590Z,56.17
2018-11-13T19:17:58.244Z,24.00
2018-11-13T19:20:27.085Z,14.90
2018-11-13T19:22:55.105Z,14.87
2018-11-13T19:25:24.913Z,15.30
2018-11-13T19:27:53.597Z,15.23
2018-11-13T19:30:21.452Z,11.23
2018-11-13T19:32:49.070Z,10.80
2018-11-13T19:35:17.373Z,12.17
2018-11-13T19:37:45.199Z,11.40
2018-11-13T19:40:15.795Z,12.53
2018-11-13T19:42:46.095Z,11.03
2018-11-13T19:45:14.425Z,15.37
2018-11-13T19:47:41.954Z,13.43
2018-11-13T19:50:12.159Z,11.73
2018-11-13T19:52:41.062Z,9.47
2018-11-13T19:55:11.167Z,8.97
2018-11-13T19:57:39.333Z,11.30
2018-11-13T20:00:09.883Z,9.80
2018-11-13T20:02:38.229Z,11.40
2018-11-13T20:05:07.697Z,12.00
2018-11-13T20:07:35.596Z,12.43
2018-11-13T20:10:05.229Z,10.07
2018-11-13T20:12:34.052Z,9.00
2018-11-13T20:15:01.576Z,10.30
2018-11-13T20:17:29.295Z,9.10
2018-11-13T20:19:57.670Z,8.70
2018-11-13T20:22:26.112Z,10.57
2018-11-13T20:24:54.777Z,10.80
2018-11-13T20:27:23.397Z,10.57
2018-11-13T20:29:51.015Z,10.83
2018-11-13T20:32:18.620Z,9.20
2018-11-13T20:34:46.440Z,7.80
2018-11-13T20:37:14.169Z,9.00
2018-11-13T20:39:42.992Z,6.20
2018-11-13T20:42:11.147Z,7.17
2018-11-13T20:44:38.763Z,8.00
2018-11-13T20:47:06.899Z,7.10
2018-11-13T20:49:36.372Z,6.40
2018-11-13T20:52:03.955Z,6.80
2018-11-13T20:54:31.507Z,8.70
2018-11-13T20:57:00.180Z,9.90
2018-11-13T20:59:27.795Z,7.67
2018-11-13T21:01:55.969Z,9.23
2018-11-13T21:04:23.584Z,11.47
2018-11-13T21:06:53.583Z,9.27
2018-11-13T21:09:21.145Z,8.73
2018-11-13T21:11:49.116Z,10.27
2018-11-13T21:14:16.709Z,9.10
2018-11-13T21:16:45.025Z,8.37
2018-11-13T21:19:12.393Z,6.80
2018-11-13T21:21:40.435Z,6.80
2018-11-13T21:24:08.458Z,6.40
2018-11-13T21:26:36.200Z,7.00
2018-11-13T21:29:03.775Z,6.60
2018-11-13T21:31:31.602Z,8.67
2018-11-13T21:33:59.281Z,7.27
2018-11-13T21:36:26.768Z,10.77
2018-11-13T21:38:54.731Z,11.10
2018-11-13T21:41:23.013Z,8.83
2018-11-13T21:43:51.176Z,8.90
2018-11-13T21:46:18.699Z,9.23
2018-11-13T21:48:46.605Z,11.50
2018-11-13T21:51:14.598Z,8.93
2018-11-13T21:53:42.125Z,11.87
2018-11-13T21:56:10.347Z,11.30
2018-11-13T21:58:37.871Z,11.27
2018-11-13T22:01:06.088Z,9.47
2018-11-13T22:03:34.442Z,6.80
2018-11-13T22:06:02.192Z,5.83
2018-11-13T22:08:29.727Z,7.30
2018-11-13T22:10:58.805Z,9.93
2018-11-13T22:13:26.343Z,9.50
2018-11-13T22:15:54.343Z,10.23
2018-11-13T22:18:21.851Z,9.60
2018-11-13T22:20:49.371Z,7.57
2018-11-13T22:23:17.943Z,6.80
2018-11-13T22:25:46.449Z,9.47
2018-11-13T22:28:14.031Z,8.67
2018-11-13T22:30:41.497Z,8.77
2018-11-13T22:33:09.252Z,7.37
2018-11-13T22:35:36.772Z,10.77
2018-11-13T22:38:04.651Z,7.20
2018-11-13T22:40:32.349Z,6.83
2018-11-13T22:43:00.455Z,7.70
2018-11-13T22:45:29.316Z,10.90
2018-11-13T22:47:57.815Z,8.83
2018-11-13T22:50:26.965Z,7.50
2018-11-13T22:52:54.820Z,9.50
2018-11-13T22:55:24.103Z,11.10
2018-11-13T22:57:53.611Z,7.27
2018-11-13T23:00:31.759Z,7.00
2018-11-13T23:03:00.079Z,6.37
2018-11-13T23:05:28.092Z,7.77
2018-11-13T23:07:56.766Z,9.43
2018-11-13T23:10:24.358Z,9.10
2018-11-13T23:12:53.641Z,8.03
2018-11-13T23:15:22.908Z,7.43
2018-11-13T23:17:50.552Z,7.27
2018-11-13T23:20:20.163Z,7.73
2018-11-13T23:22:47.744Z,6.97
2018-11-13T23:25:17.061Z,7.20
2018-11-13T23:27:45.652Z,5.47
2018-11-13T23:30:20.117Z,5.40
2018-11-13T23:32:49.325Z,8.50
2018-11-13T23:35:17.301Z,9.20
2018-11-13T23:37:45.990Z,6.57
2018-11-13T23:40:15.972Z,7.40
2018-11-13T23:42:44.653Z,5.60
2018-11-13T23:45:13.060Z,7.57
2018-11-13T23:47:41.162Z,8.90
2018-11-13T23:50:09.595Z,6.90
2018-11-13T23:52:37.836Z,7.33
2018-11-13T23:55:08.700Z,6.50
2018-11-13T23:57:37.818Z,7.50
